NOZ393 ENAN-ENGM
Flight info
| Callsign | NOZ393 |
|---|---|
| Flight time | 1h 35m |
| Altitude | 37000 |
| Route | ABTUS DCT SOMUB DCT ABUNO DCT INREX |
| Aircraft | B738/M-SDE2E3GHIJ1LRWXY/LB1 |
Departure
| Time | 2026-05-06 07:46 |
|---|---|
| Airport | Andøya Airport, Andenes (ENAN) |
Arrival
| Time | 2026-05-06 09:21 |
|---|---|
| Airport | Oslo-Gardermoen International Airport (ENGM) |
| Time | Latitude | Longitude | Altitude | Speed | Heading |
|---|---|---|---|---|---|
| 2026-05-06 07:38 | 69.31018 | 16.12425 | 28 ft | 0 kts | 69° |
| 2026-05-06 07:43 | 69.31018 | 16.12426 | 28 ft | 0 kts | 69° |
| 2026-05-06 07:43 | 69.31002 | 16.12488 | 29 ft | 8 kts | 164° |
| 2026-05-06 07:43 | 69.30979 | 16.12498 | 30 ft | 8 kts | 176° |
| 2026-05-06 07:43 | 69.30928 | 16.12456 | 33 ft | 8 kts | 202° |
| 2026-05-06 07:44 | 69.30857 | 16.12384 | 31 ft | 16 kts | 191° |
| 2026-05-06 07:44 | 69.30740 | 16.12261 | 30 ft | 18 kts | 227° |
| 2026-05-06 07:44 | 69.30688 | 16.12056 | 37 ft | 10 kts | 186° |
| 2026-05-06 07:44 | 69.30654 | 16.12085 | 37 ft | 2 kts | 151° |
| 2026-05-06 07:45 | 69.30648 | 16.12095 | 36 ft | 0 kts | 150° |
| 2026-05-06 07:45 | 69.30648 | 16.12096 | 36 ft | 1 kts | 150° |
| 2026-05-06 07:45 | 69.30446 | 16.12435 | 34 ft | 71 kts | 150° |
| 2026-05-06 07:46 | 69.29809 | 16.13475 | 31 ft | 138 kts | 150° |
| 2026-05-06 07:46 | 69.28869 | 16.15008 | 364 ft | 161 kts | 148° |
| 2026-05-06 07:46 | 69.27864 | 16.16596 | 1053 ft | 170 kts | 150° |
| 2026-05-06 07:46 | 69.26812 | 16.18215 | 1863 ft | 172 kts | 149° |
| 2026-05-06 07:47 | 69.25701 | 16.19682 | 2433 ft | 189 kts | 166° |
| 2026-05-06 07:47 | 69.24312 | 16.19366 | 2683 ft | 214 kts | 197° |
| 2026-05-06 07:47 | 69.22844 | 16.17947 | 2934 ft | 234 kts | 199° |
| 2026-05-06 07:47 | 69.21265 | 16.16345 | 3352 ft | 245 kts | 199° |
| 2026-05-06 07:48 | 69.19592 | 16.14639 | 3615 ft | 263 kts | 199° |
| 2026-05-06 07:48 | 69.17841 | 16.12865 | 4339 ft | 268 kts | 199° |
| 2026-05-06 07:48 | 69.16075 | 16.11083 | 5168 ft | 272 kts | 200° |
| 2026-05-06 07:48 | 69.14307 | 16.09303 | 6115 ft | 269 kts | 200° |
| 2026-05-06 07:49 | 69.12521 | 16.07511 | 6816 ft | 274 kts | 200° |
| 2026-05-06 07:49 | 69.10708 | 16.05703 | 7551 ft | 277 kts | 201° |
| 2026-05-06 07:49 | 69.08898 | 16.03907 | 8444 ft | 276 kts | 201° |
| 2026-05-06 07:49 | 69.07079 | 16.02107 | 9218 ft | 279 kts | 201° |
| 2026-05-06 07:50 | 69.05239 | 16.00288 | 9944 ft | 282 kts | 201° |
| 2026-05-06 07:50 | 69.03363 | 15.98437 | 10477 ft | 292 kts | 201° |
| 2026-05-06 07:50 | 69.01414 | 15.96519 | 11029 ft | 301 kts | 201° |
| 2026-05-06 07:50 | 68.99433 | 15.94577 | 11776 ft | 303 kts | 201° |
| 2026-05-06 07:51 | 68.97436 | 15.92626 | 12554 ft | 305 kts | 201° |
| 2026-05-06 07:51 | 68.95422 | 15.90659 | 13350 ft | 308 kts | 202° |
| 2026-05-06 07:51 | 68.93392 | 15.88679 | 14085 ft | 311 kts | 202° |
| 2026-05-06 07:51 | 68.91342 | 15.86684 | 14802 ft | 314 kts | 202° |
| 2026-05-06 07:52 | 68.89269 | 15.84671 | 15538 ft | 318 kts | 201° |
| 2026-05-06 07:52 | 68.87171 | 15.82640 | 16319 ft | 320 kts | 201° |
| 2026-05-06 07:52 | 68.85056 | 15.80596 | 17063 ft | 324 kts | 201° |
| 2026-05-06 07:52 | 68.82944 | 15.78562 | 17794 ft | 327 kts | 201° |
| 2026-05-06 07:53 | 68.80754 | 15.76453 | 18454 ft | 331 kts | 201° |
| 2026-05-06 07:53 | 68.78594 | 15.74376 | 19044 ft | 335 kts | 201° |
| 2026-05-06 07:53 | 68.76384 | 15.72256 | 19664 ft | 339 kts | 200° |
| 2026-05-06 07:53 | 68.74148 | 15.70114 | 20247 ft | 343 kts | 200° |
| 2026-05-06 07:54 | 68.71879 | 15.67951 | 20827 ft | 347 kts | 200° |
| 2026-05-06 07:54 | 68.69584 | 15.65767 | 21409 ft | 351 kts | 200° |
| 2026-05-06 07:54 | 68.67264 | 15.63562 | 21994 ft | 355 kts | 200° |
| 2026-05-06 07:54 | 68.64915 | 15.61334 | 22577 ft | 359 kts | 199° |
| 2026-05-06 07:55 | 68.62542 | 15.59088 | 23146 ft | 363 kts | 199° |
| 2026-05-06 07:55 | 68.60142 | 15.56823 | 23635 ft | 367 kts | 199° |
| 2026-05-06 07:55 | 68.57718 | 15.54539 | 24111 ft | 370 kts | 199° |
| 2026-05-06 07:55 | 68.55276 | 15.52242 | 24596 ft | 373 kts | 199° |
| 2026-05-06 07:56 | 68.52816 | 15.49937 | 25085 ft | 375 kts | 199° |
| 2026-05-06 07:56 | 68.50337 | 15.47619 | 25552 ft | 378 kts | 199° |
| 2026-05-06 07:56 | 68.47839 | 15.45287 | 25989 ft | 381 kts | 199° |
| 2026-05-06 07:56 | 68.45329 | 15.42948 | 26516 ft | 382 kts | 199° |
| 2026-05-06 07:57 | 68.42806 | 15.40604 | 26943 ft | 385 kts | 199° |
| 2026-05-06 07:57 | 68.40255 | 15.38239 | 27320 ft | 389 kts | 199° |
| 2026-05-06 07:57 | 68.37678 | 15.35856 | 27715 ft | 393 kts | 199° |
| 2026-05-06 07:57 | 68.35082 | 15.33462 | 28122 ft | 396 kts | 199° |
| 2026-05-06 07:58 | 68.32467 | 15.31051 | 28517 ft | 399 kts | 199° |
| 2026-05-06 07:58 | 68.29833 | 15.28633 | 28895 ft | 402 kts | 199° |
| 2026-05-06 07:58 | 68.27176 | 15.26200 | 29264 ft | 405 kts | 199° |
| 2026-05-06 07:58 | 68.24500 | 15.23754 | 29630 ft | 408 kts | 199° |
| 2026-05-06 07:59 | 68.21800 | 15.21294 | 29966 ft | 411 kts | 199° |
| 2026-05-06 07:59 | 68.19083 | 15.18850 | 30252 ft | 413 kts | 198° |
| 2026-05-06 07:59 | 68.16339 | 15.16483 | 30550 ft | 415 kts | 198° |
| 2026-05-06 07:59 | 68.13577 | 15.14153 | 30876 ft | 417 kts | 198° |
| 2026-05-06 08:00 | 68.10806 | 15.11834 | 31181 ft | 418 kts | 198° |
| 2026-05-06 08:00 | 68.08020 | 15.09507 | 31421 ft | 421 kts | 198° |
| 2026-05-06 08:00 | 68.05212 | 15.07161 | 31666 ft | 424 kts | 198° |
| 2026-05-06 08:00 | 68.02431 | 15.04838 | 31915 ft | 426 kts | 198° |
| 2026-05-06 08:01 | 67.99595 | 15.02466 | 32177 ft | 428 kts | 198° |
| 2026-05-06 08:01 | 67.96746 | 15.00088 | 32440 ft | 430 kts | 198° |
| 2026-05-06 08:01 | 67.93883 | 14.97699 | 32689 ft | 432 kts | 198° |
| 2026-05-06 08:01 | 67.91009 | 14.95309 | 32929 ft | 434 kts | 198° |
| 2026-05-06 08:02 | 67.88115 | 14.92910 | 33157 ft | 436 kts | 198° |
| 2026-05-06 08:02 | 67.85211 | 14.90509 | 33375 ft | 439 kts | 198° |
| 2026-05-06 08:02 | 67.82294 | 14.88105 | 33632 ft | 440 kts | 198° |
| 2026-05-06 08:02 | 67.79363 | 14.85696 | 33864 ft | 441 kts | 198° |
| 2026-05-06 08:03 | 67.76424 | 14.83287 | 34048 ft | 444 kts | 198° |
| 2026-05-06 08:03 | 67.73468 | 14.80868 | 34212 ft | 445 kts | 198° |
| 2026-05-06 08:03 | 67.70506 | 14.78448 | 34384 ft | 447 kts | 198° |
| 2026-05-06 08:03 | 67.67526 | 14.76018 | 34561 ft | 449 kts | 198° |
| 2026-05-06 08:04 | 67.64539 | 14.73592 | 34742 ft | 450 kts | 198° |
| 2026-05-06 08:04 | 67.62558 | 14.71987 | 34855 ft | 451 kts | 198° |
| 2026-05-06 08:04 | 67.59556 | 14.69560 | 35012 ft | 452 kts | 198° |
| 2026-05-06 08:04 | 67.56541 | 14.67130 | 35151 ft | 454 kts | 198° |
| 2026-05-06 08:05 | 67.53519 | 14.64701 | 35308 ft | 455 kts | 198° |
| 2026-05-06 08:05 | 67.50492 | 14.62275 | 35529 ft | 454 kts | 198° |
| 2026-05-06 08:05 | 67.47472 | 14.59861 | 35784 ft | 453 kts | 198° |
| 2026-05-06 08:05 | 67.44457 | 14.57460 | 35997 ft | 453 kts | 198° |
| 2026-05-06 08:06 | 67.41441 | 14.55064 | 36166 ft | 454 kts | 198° |
| 2026-05-06 08:06 | 67.38423 | 14.52669 | 36347 ft | 454 kts | 198° |
| 2026-05-06 08:06 | 67.35403 | 14.50279 | 36554 ft | 453 kts | 198° |
| 2026-05-06 08:06 | 67.32386 | 14.47897 | 36763 ft | 453 kts | 198° |
| 2026-05-06 08:07 | 67.29373 | 14.45524 | 36934 ft | 453 kts | 198° |
| 2026-05-06 08:07 | 67.26351 | 14.43150 | 36994 ft | 455 kts | 198° |
| 2026-05-06 08:07 | 67.20292 | 14.38409 | 37009 ft | 460 kts | 198° |
| 2026-05-06 08:08 | 67.14134 | 14.33625 | 37016 ft | 464 kts | 198° |
| 2026-05-06 08:08 | 67.07917 | 14.28813 | 37006 ft | 468 kts | 198° |
| 2026-05-06 08:09 | 67.01670 | 14.24007 | 37009 ft | 469 kts | 198° |
| 2026-05-06 08:09 | 66.95414 | 14.19217 | 37002 ft | 469 kts | 198° |
| 2026-05-06 08:10 | 66.89161 | 14.14458 | 37008 ft | 468 kts | 198° |
| 2026-05-06 08:10 | 66.82932 | 14.09741 | 37013 ft | 466 kts | 198° |
| 2026-05-06 08:11 | 66.76730 | 14.05074 | 37014 ft | 464 kts | 198° |
| 2026-05-06 08:11 | 66.70555 | 14.00449 | 37027 ft | 462 kts | 198° |
| 2026-05-06 08:12 | 66.64403 | 13.95860 | 37021 ft | 460 kts | 198° |
| 2026-05-06 08:12 | 66.58272 | 13.91317 | 37009 ft | 458 kts | 198° |
| 2026-05-06 08:13 | 66.52163 | 13.86807 | 37023 ft | 457 kts | 198° |
| 2026-05-06 08:13 | 66.46066 | 13.82329 | 37020 ft | 456 kts | 198° |
| 2026-05-06 08:14 | 66.39971 | 13.77876 | 37022 ft | 456 kts | 198° |
| 2026-05-06 08:14 | 66.33866 | 13.73437 | 37029 ft | 457 kts | 198° |
| 2026-05-06 08:15 | 66.27747 | 13.69014 | 37011 ft | 459 kts | 198° |
| 2026-05-06 08:15 | 66.21614 | 13.64607 | 37020 ft | 459 kts | 198° |
| 2026-05-06 08:16 | 66.15471 | 13.60213 | 37027 ft | 460 kts | 198° |
| 2026-05-06 08:16 | 66.09318 | 13.55830 | 36991 ft | 461 kts | 198° |
| 2026-05-06 08:17 | 66.06232 | 13.53639 | 36868 ft | 462 kts | 198° |
| 2026-05-06 08:17 | 66.03147 | 13.51455 | 36845 ft | 460 kts | 197° |
| 2026-05-06 08:17 | 65.97015 | 13.47136 | 36829 ft | 458 kts | 198° |
| 2026-05-06 08:18 | 65.90893 | 13.42844 | 36844 ft | 459 kts | 198° |
| 2026-05-06 08:18 | 65.84745 | 13.38552 | 36858 ft | 460 kts | 198° |
| 2026-05-06 08:19 | 65.78623 | 13.34303 | 36859 ft | 461 kts | 197° |
| 2026-05-06 08:19 | 65.72437 | 13.30027 | 36861 ft | 462 kts | 197° |
| 2026-05-06 08:20 | 65.66242 | 13.25772 | 36848 ft | 463 kts | 197° |
| 2026-05-06 08:20 | 65.60046 | 13.21532 | 36852 ft | 462 kts | 197° |
| 2026-05-06 08:21 | 65.53862 | 13.17322 | 36860 ft | 461 kts | 197° |
| 2026-05-06 08:21 | 65.47693 | 13.13143 | 36868 ft | 460 kts | 197° |
| 2026-05-06 08:22 | 65.41525 | 13.08985 | 36858 ft | 460 kts | 197° |
| 2026-05-06 08:22 | 65.35369 | 13.04859 | 36845 ft | 459 kts | 198° |
| 2026-05-06 08:23 | 65.29228 | 13.00760 | 36856 ft | 457 kts | 198° |
| 2026-05-06 08:23 | 65.23100 | 12.96691 | 36867 ft | 457 kts | 197° |
| 2026-05-06 08:24 | 65.16975 | 12.92641 | 36888 ft | 457 kts | 197° |
| 2026-05-06 08:24 | 65.10857 | 12.88614 | 36881 ft | 456 kts | 197° |
| 2026-05-06 08:25 | 65.04740 | 12.84608 | 36878 ft | 456 kts | 198° |
| 2026-05-06 08:25 | 64.98630 | 12.80625 | 36890 ft | 455 kts | 198° |
| 2026-05-06 08:26 | 64.92528 | 12.76671 | 36886 ft | 455 kts | 198° |
| 2026-05-06 08:26 | 64.86431 | 12.72741 | 36897 ft | 454 kts | 198° |
| 2026-05-06 08:27 | 64.80327 | 12.68814 | 36901 ft | 455 kts | 198° |
| 2026-05-06 08:27 | 64.74232 | 12.64914 | 36885 ft | 455 kts | 198° |
| 2026-05-06 08:28 | 64.68126 | 12.61029 | 36913 ft | 454 kts | 198° |
| 2026-05-06 08:28 | 64.62065 | 12.57187 | 36910 ft | 454 kts | 198° |
| 2026-05-06 08:29 | 64.55964 | 12.53342 | 36917 ft | 455 kts | 198° |
| 2026-05-06 08:29 | 64.49849 | 12.49500 | 36915 ft | 456 kts | 198° |
| 2026-05-06 08:30 | 64.43722 | 12.45674 | 36905 ft | 456 kts | 198° |
| 2026-05-06 08:30 | 64.37596 | 12.41863 | 36917 ft | 455 kts | 198° |
| 2026-05-06 08:31 | 64.31474 | 12.38073 | 36928 ft | 455 kts | 198° |
| 2026-05-06 08:31 | 64.25354 | 12.34302 | 36942 ft | 455 kts | 198° |
| 2026-05-06 08:32 | 64.19239 | 12.30551 | 36959 ft | 455 kts | 197° |
| 2026-05-06 08:32 | 64.13126 | 12.26819 | 36966 ft | 454 kts | 197° |
| 2026-05-06 08:33 | 64.07016 | 12.23106 | 36970 ft | 454 kts | 197° |
| 2026-05-06 08:33 | 64.00907 | 12.19409 | 36966 ft | 454 kts | 197° |
| 2026-05-06 08:34 | 63.91753 | 12.13901 | 36942 ft | 453 kts | 197° |
| 2026-05-06 08:35 | 63.85657 | 12.10253 | 36951 ft | 453 kts | 197° |
| 2026-05-06 08:35 | 63.79568 | 12.06626 | 36942 ft | 452 kts | 198° |
| 2026-05-06 08:36 | 63.73483 | 12.03013 | 36952 ft | 452 kts | 198° |
| 2026-05-06 08:36 | 63.67399 | 11.99423 | 36962 ft | 452 kts | 198° |
| 2026-05-06 08:37 | 63.61319 | 11.95852 | 36961 ft | 451 kts | 197° |
| 2026-05-06 08:37 | 63.55242 | 11.92293 | 36946 ft | 452 kts | 198° |
| 2026-05-06 08:38 | 63.49204 | 11.88772 | 36958 ft | 451 kts | 198° |
| 2026-05-06 08:38 | 63.43130 | 11.85252 | 36971 ft | 451 kts | 198° |
| 2026-05-06 08:39 | 63.37057 | 11.81767 | 36971 ft | 451 kts | 196° |
| 2026-05-06 08:39 | 63.30777 | 11.80666 | 36975 ft | 458 kts | 181° |
| 2026-05-06 08:40 | 63.24414 | 11.81442 | 36951 ft | 458 kts | 181° |
| 2026-05-06 08:40 | 63.18057 | 11.82222 | 36969 ft | 458 kts | 181° |
| 2026-05-06 08:41 | 63.11704 | 11.82921 | 36976 ft | 457 kts | 181° |
| 2026-05-06 08:41 | 63.05353 | 11.83575 | 36980 ft | 457 kts | 181° |
| 2026-05-06 08:42 | 62.98993 | 11.84222 | 36973 ft | 457 kts | 181° |
| 2026-05-06 08:42 | 62.92654 | 11.84866 | 36951 ft | 457 kts | 181° |
| 2026-05-06 08:43 | 62.86325 | 11.85507 | 36969 ft | 456 kts | 181° |
| 2026-05-06 08:43 | 62.79999 | 11.86146 | 36962 ft | 455 kts | 181° |
| 2026-05-06 08:44 | 62.73673 | 11.86785 | 36950 ft | 455 kts | 182° |
| 2026-05-06 08:44 | 62.67357 | 11.87417 | 36943 ft | 454 kts | 182° |
| 2026-05-06 08:45 | 62.61040 | 11.88048 | 36904 ft | 454 kts | 182° |
| 2026-05-06 08:45 | 62.54731 | 11.88672 | 36958 ft | 454 kts | 182° |
| 2026-05-06 08:46 | 62.48422 | 11.89295 | 36981 ft | 454 kts | 182° |
| 2026-05-06 08:46 | 62.42114 | 11.89914 | 36970 ft | 454 kts | 182° |
| 2026-05-06 08:47 | 62.35794 | 11.90537 | 36964 ft | 454 kts | 182° |
| 2026-05-06 08:47 | 62.29481 | 11.91156 | 36955 ft | 454 kts | 182° |
| 2026-05-06 08:48 | 62.23177 | 11.91768 | 36960 ft | 454 kts | 182° |
| 2026-05-06 08:48 | 62.16868 | 11.92377 | 36971 ft | 454 kts | 182° |
| 2026-05-06 08:49 | 62.10551 | 11.92986 | 36969 ft | 455 kts | 182° |
| 2026-05-06 08:49 | 62.04242 | 11.93594 | 36974 ft | 455 kts | 182° |
| 2026-05-06 08:50 | 61.97925 | 11.94452 | 36969 ft | 458 kts | 178° |
| 2026-05-06 08:50 | 61.91638 | 11.96261 | 36971 ft | 459 kts | 177° |
| 2026-05-06 08:51 | 61.85334 | 11.98181 | 36960 ft | 459 kts | 177° |
| 2026-05-06 08:51 | 61.79015 | 12.00040 | 36843 ft | 460 kts | 178° |
| 2026-05-06 08:51 | 61.75819 | 12.00957 | 36310 ft | 463 kts | 178° |
| 2026-05-06 08:52 | 61.72638 | 12.01867 | 35729 ft | 461 kts | 178° |
| 2026-05-06 08:52 | 61.69496 | 12.02768 | 35485 ft | 450 kts | 179° |
| 2026-05-06 08:52 | 61.66410 | 12.03653 | 34982 ft | 447 kts | 179° |
| 2026-05-06 08:52 | 61.63324 | 12.04526 | 34373 ft | 448 kts | 180° |
| 2026-05-06 08:53 | 61.60249 | 12.05392 | 33684 ft | 450 kts | 180° |
| 2026-05-06 08:53 | 61.58199 | 12.05964 | 33176 ft | 451 kts | 181° |
| 2026-05-06 08:53 | 61.55141 | 12.06822 | 32447 ft | 452 kts | 181° |
| 2026-05-06 08:53 | 61.52045 | 12.07694 | 31727 ft | 450 kts | 182° |
| 2026-05-06 08:54 | 61.48957 | 12.08561 | 31001 ft | 446 kts | 183° |
| 2026-05-06 08:54 | 61.45894 | 12.09424 | 30272 ft | 444 kts | 183° |
| 2026-05-06 08:54 | 61.42840 | 12.10281 | 29572 ft | 440 kts | 184° |
| 2026-05-06 08:54 | 61.39838 | 12.11129 | 28995 ft | 432 kts | 184° |
| 2026-05-06 08:55 | 61.36887 | 12.11961 | 28385 ft | 424 kts | 184° |
| 2026-05-06 08:55 | 61.33992 | 12.12776 | 27923 ft | 416 kts | 184° |
| 2026-05-06 08:55 | 61.31146 | 12.13569 | 27400 ft | 409 kts | 184° |
| 2026-05-06 08:55 | 61.28340 | 12.14342 | 26865 ft | 404 kts | 185° |
| 2026-05-06 08:56 | 61.25567 | 12.15102 | 26343 ft | 400 kts | 185° |
| 2026-05-06 08:56 | 61.22818 | 12.15854 | 25802 ft | 396 kts | 185° |
| 2026-05-06 08:56 | 61.20107 | 12.16599 | 25309 ft | 391 kts | 185° |
| 2026-05-06 08:56 | 61.17419 | 12.17335 | 24901 ft | 386 kts | 185° |
| 2026-05-06 08:57 | 61.14806 | 12.18062 | 24766 ft | 373 kts | 185° |
| 2026-05-06 08:57 | 61.12264 | 12.18764 | 24580 ft | 364 kts | 186° |
| 2026-05-06 08:57 | 61.09788 | 12.19441 | 24436 ft | 355 kts | 186° |
| 2026-05-06 08:57 | 61.07353 | 12.20095 | 24298 ft | 353 kts | 186° |
| 2026-05-06 08:58 | 61.04929 | 12.20749 | 24145 ft | 348 kts | 186° |
| 2026-05-06 08:58 | 61.02561 | 12.21401 | 23997 ft | 338 kts | 187° |
| 2026-05-06 08:58 | 61.00301 | 12.21538 | 23705 ft | 312 kts | 202° |
| 2026-05-06 08:58 | 60.98187 | 12.20839 | 23393 ft | 306 kts | 203° |
| 2026-05-06 08:59 | 60.96095 | 12.20119 | 23011 ft | 303 kts | 202° |
| 2026-05-06 08:59 | 60.94026 | 12.19420 | 22661 ft | 300 kts | 202° |
| 2026-05-06 08:59 | 60.91980 | 12.18745 | 22334 ft | 297 kts | 202° |
| 2026-05-06 08:59 | 60.89945 | 12.18083 | 22016 ft | 295 kts | 201° |
| 2026-05-06 09:00 | 60.87925 | 12.17432 | 21666 ft | 293 kts | 201° |
| 2026-05-06 09:00 | 60.85926 | 12.16795 | 21379 ft | 289 kts | 201° |
| 2026-05-06 09:00 | 60.83943 | 12.16164 | 21051 ft | 287 kts | 201° |
| 2026-05-06 09:00 | 60.81971 | 12.15537 | 20730 ft | 287 kts | 200° |
| 2026-05-06 09:01 | 60.79999 | 12.14912 | 20412 ft | 287 kts | 200° |
| 2026-05-06 09:01 | 60.78017 | 12.14283 | 20047 ft | 289 kts | 201° |
| 2026-05-06 09:01 | 60.76001 | 12.13642 | 19780 ft | 299 kts | 200° |
| 2026-05-06 09:01 | 60.73915 | 12.12977 | 19458 ft | 307 kts | 200° |
| 2026-05-06 09:02 | 60.71804 | 12.12316 | 19112 ft | 307 kts | 199° |
| 2026-05-06 09:02 | 60.69703 | 12.11667 | 18783 ft | 305 kts | 199° |
| 2026-05-06 09:02 | 60.67616 | 12.11023 | 18449 ft | 303 kts | 199° |
| 2026-05-06 09:02 | 60.65561 | 12.10390 | 18105 ft | 302 kts | 199° |
| 2026-05-06 09:03 | 60.63497 | 12.09752 | 17744 ft | 300 kts | 199° |
| 2026-05-06 09:03 | 60.61439 | 12.09116 | 17404 ft | 298 kts | 198° |
| 2026-05-06 09:03 | 60.59397 | 12.08488 | 17099 ft | 295 kts | 198° |
| 2026-05-06 09:03 | 60.57373 | 12.07864 | 16770 ft | 293 kts | 198° |
| 2026-05-06 09:04 | 60.55363 | 12.07241 | 16477 ft | 291 kts | 197° |
| 2026-05-06 09:04 | 60.53374 | 12.06625 | 16149 ft | 289 kts | 197° |
| 2026-05-06 09:04 | 60.51452 | 12.06030 | 15860 ft | 287 kts | 196° |
| 2026-05-06 09:04 | 60.49551 | 12.05446 | 15532 ft | 285 kts | 197° |
| 2026-05-06 09:05 | 60.47624 | 12.04851 | 15261 ft | 281 kts | 196° |
| 2026-05-06 09:05 | 60.45711 | 12.04261 | 14968 ft | 280 kts | 196° |
| 2026-05-06 09:05 | 60.43791 | 12.03669 | 14671 ft | 278 kts | 195° |
| 2026-05-06 09:05 | 60.41883 | 12.03082 | 14375 ft | 277 kts | 195° |
| 2026-05-06 09:06 | 60.39985 | 12.02498 | 14083 ft | 275 kts | 195° |
| 2026-05-06 09:06 | 60.38094 | 12.01918 | 13782 ft | 274 kts | 194° |
| 2026-05-06 09:06 | 60.36210 | 12.01341 | 13453 ft | 273 kts | 194° |
| 2026-05-06 09:06 | 60.34338 | 12.00771 | 13139 ft | 271 kts | 194° |
| 2026-05-06 09:07 | 60.32479 | 12.00205 | 12846 ft | 269 kts | 194° |
| 2026-05-06 09:07 | 60.30632 | 11.99641 | 12552 ft | 267 kts | 194° |
| 2026-05-06 09:07 | 60.28800 | 11.99083 | 12258 ft | 266 kts | 193° |
| 2026-05-06 09:07 | 60.26981 | 11.98530 | 11984 ft | 262 kts | 193° |
| 2026-05-06 09:08 | 60.25292 | 11.97374 | 11674 ft | 256 kts | 221° |
| 2026-05-06 09:08 | 60.24143 | 11.94645 | 11472 ft | 260 kts | 236° |
| 2026-05-06 09:08 | 60.23066 | 11.91665 | 11201 ft | 267 kts | 234° |
| 2026-05-06 09:08 | 60.21950 | 11.88643 | 10955 ft | 270 kts | 234° |
| 2026-05-06 09:09 | 60.20820 | 11.85607 | 10685 ft | 271 kts | 234° |
| 2026-05-06 09:09 | 60.19707 | 11.82625 | 10422 ft | 269 kts | 234° |
| 2026-05-06 09:09 | 60.18590 | 11.79644 | 10156 ft | 265 kts | 234° |
| 2026-05-06 09:09 | 60.17488 | 11.76709 | 9904 ft | 262 kts | 233° |
| 2026-05-06 09:10 | 60.16394 | 11.73803 | 9633 ft | 259 kts | 233° |
| 2026-05-06 09:10 | 60.15309 | 11.70921 | 9353 ft | 259 kts | 233° |
| 2026-05-06 09:10 | 60.14225 | 11.68050 | 9073 ft | 257 kts | 233° |
| 2026-05-06 09:10 | 60.13149 | 11.65203 | 8800 ft | 255 kts | 233° |
| 2026-05-06 09:11 | 60.12084 | 11.62388 | 8525 ft | 252 kts | 233° |
| 2026-05-06 09:11 | 60.11026 | 11.59595 | 8255 ft | 251 kts | 233° |
| 2026-05-06 09:11 | 60.09971 | 11.56816 | 7983 ft | 249 kts | 233° |
| 2026-05-06 09:11 | 60.08926 | 11.54065 | 7716 ft | 247 kts | 233° |
| 2026-05-06 09:12 | 60.07887 | 11.51334 | 7457 ft | 246 kts | 233° |
| 2026-05-06 09:12 | 60.06856 | 11.48630 | 7197 ft | 245 kts | 232° |
| 2026-05-06 09:12 | 60.05825 | 11.45926 | 6937 ft | 244 kts | 232° |
| 2026-05-06 09:12 | 60.04801 | 11.43214 | 6695 ft | 246 kts | 232° |
| 2026-05-06 09:13 | 60.03756 | 11.40482 | 6444 ft | 249 kts | 232° |
| 2026-05-06 09:13 | 60.02696 | 11.37722 | 6185 ft | 250 kts | 232° |
| 2026-05-06 09:13 | 60.01643 | 11.34982 | 5919 ft | 249 kts | 232° |
| 2026-05-06 09:13 | 60.00593 | 11.32248 | 5652 ft | 247 kts | 232° |
| 2026-05-06 09:14 | 59.99544 | 11.29523 | 5389 ft | 247 kts | 233° |
| 2026-05-06 09:14 | 59.98501 | 11.26798 | 5122 ft | 247 kts | 233° |
| 2026-05-06 09:14 | 59.97454 | 11.24079 | 5031 ft | 247 kts | 233° |
| 2026-05-06 09:14 | 59.96405 | 11.21358 | 5003 ft | 247 kts | 232° |
| 2026-05-06 09:15 | 59.95359 | 11.18646 | 5003 ft | 245 kts | 233° |
| 2026-05-06 09:15 | 59.94329 | 11.15975 | 5000 ft | 240 kts | 234° |
| 2026-05-06 09:15 | 59.93675 | 11.13033 | 4995 ft | 229 kts | 263° |
| 2026-05-06 09:15 | 59.93836 | 11.09943 | 4865 ft | 226 kts | 288° |
| 2026-05-06 09:16 | 59.94615 | 11.07235 | 4665 ft | 227 kts | 308° |
| 2026-05-06 09:16 | 59.95698 | 11.04958 | 4454 ft | 226 kts | 313° |
| 2026-05-06 09:16 | 59.96801 | 11.02781 | 4269 ft | 220 kts | 314° |
| 2026-05-06 09:16 | 59.97927 | 11.00782 | 4037 ft | 214 kts | 327° |
| 2026-05-06 09:17 | 59.99321 | 11.00195 | 3867 ft | 205 kts | 10° |
| 2026-05-06 09:17 | 60.00631 | 11.01055 | 3765 ft | 193 kts | 16° |
| 2026-05-06 09:17 | 60.01920 | 11.01678 | 3618 ft | 192 kts | 14° |
| 2026-05-06 09:17 | 60.03217 | 11.02438 | 3507 ft | 193 kts | 16° |
| 2026-05-06 09:18 | 60.04479 | 11.03186 | 3426 ft | 190 kts | 14° |
| 2026-05-06 09:18 | 60.05766 | 11.03994 | 3186 ft | 197 kts | 17° |
| 2026-05-06 09:18 | 60.07076 | 11.04736 | 2929 ft | 195 kts | 14° |
| 2026-05-06 09:18 | 60.08374 | 11.05452 | 2662 ft | 191 kts | 15° |
| 2026-05-06 09:19 | 60.09644 | 11.06178 | 2364 ft | 188 kts | 15° |
| 2026-05-06 09:19 | 60.10830 | 11.06873 | 2130 ft | 171 kts | 15° |
| 2026-05-06 09:19 | 60.11945 | 11.07519 | 1892 ft | 164 kts | 15° |
| 2026-05-06 09:19 | 60.13011 | 11.08136 | 1727 ft | 157 kts | 15° |
| 2026-05-06 09:20 | 60.14087 | 11.08759 | 1434 ft | 159 kts | 15° |
| 2026-05-06 09:20 | 60.15119 | 11.09355 | 1215 ft | 151 kts | 15° |
| 2026-05-06 09:20 | 60.16123 | 11.09937 | 1015 ft | 150 kts | 16° |
| 2026-05-06 09:20 | 60.17111 | 11.10509 | 824 ft | 142 kts | 15° |
| 2026-05-06 09:21 | 60.18018 | 11.11031 | 683 ft | 129 kts | 15° |
| 2026-05-06 09:21 | 60.18727 | 11.11442 | 683 ft | 76 kts | 16° |
| 2026-05-06 09:21 | 60.19094 | 11.11655 | 683 ft | 31 kts | 16° |
| 2026-05-06 09:21 | 60.19282 | 11.11691 | 682 ft | 26 kts | 352° |
| 2026-05-06 09:22 | 60.19386 | 11.11461 | 681 ft | 23 kts | 285° |
| 2026-05-06 09:22 | 60.19469 | 11.11284 | 679 ft | 17 kts | 334° |
| 2026-05-06 09:22 | 60.19516 | 11.11071 | 681 ft | 17 kts | 285° |
| 2026-05-06 09:22 | 60.19547 | 11.10847 | 682 ft | 16 kts | 285° |
| 2026-05-06 09:23 | 60.19577 | 11.10633 | 682 ft | 16 kts | 288° |
| 2026-05-06 09:23 | 60.19621 | 11.10443 | 682 ft | 15 kts | 330° |
| 2026-05-06 09:23 | 60.19697 | 11.10395 | 679 ft | 11 kts | 294° |
| 2026-05-06 09:23 | 60.19716 | 11.10265 | 681 ft | 5 kts | 286° |
| 2026-05-06 09:24 | 60.19718 | 11.10249 | 684 ft | 0 kts | 286° |